createdAt,value
2019-03-04T07:50:39.315Z,3.4
2019-03-04T07:50:47.498Z,3.5
2019-03-04T07:50:55.657Z,3.4
2019-03-04T07:51:03.527Z,3.2
2019-03-04T07:51:11.417Z,3.1
2019-03-04T07:51:20.364Z,2.9
2019-03-04T07:51:28.313Z,2.9
2019-03-04T07:51:36.295Z,2.9
2019-03-04T07:51:45.159Z,3.2
2019-03-04T07:51:54.200Z,3.3
2019-03-04T07:52:02.359Z,3.5
2019-03-04T07:52:10.529Z,3.7
2019-03-04T07:52:18.725Z,3.5
2019-03-04T07:52:26.841Z,3.6
2019-03-04T07:52:34.958Z,3.7
2019-03-04T07:52:43.045Z,3.6
2019-03-04T07:52:51.127Z,3.7
2019-03-04T07:52:59.371Z,3.5
2019-03-04T07:53:08.536Z,3.3
2019-03-04T07:53:18.957Z,3.2
2019-03-04T07:53:26.091Z,3.2
2019-03-04T07:53:34.260Z,3.2
2019-03-04T07:53:47.223Z,3.3
2019-03-04T07:53:55.100Z,3.4
2019-03-04T07:54:03.125Z,3.6
2019-03-04T07:54:11.212Z,3.5
2019-03-04T07:54:20.370Z,3.5
2019-03-04T07:54:28.714Z,3.6
2019-03-04T07:54:36.869Z,3.5
2019-03-04T07:54:44.819Z,3.6
2019-03-04T07:54:53.827Z,3.5
2019-03-04T07:55:02.080Z,3.6
2019-03-04T07:55:10.171Z,3.5
2019-03-04T07:55:18.081Z,3.6
2019-03-04T07:55:26.922Z,3.6
2019-03-04T07:55:34.819Z,3.6
2019-03-04T07:55:42.821Z,3.8
2019-03-04T07:55:50.972Z,3.7
2019-03-04T07:55:59.108Z,3.8
2019-03-04T07:56:07.090Z,3.7
2019-03-04T07:56:15.117Z,3.6
2019-03-04T07:56:23.241Z,3.6
2019-03-04T07:56:31.381Z,3.3
2019-03-04T07:56:39.430Z,3.3
2019-03-04T07:56:48.536Z,3.3
2019-03-04T07:56:56.822Z,3.5
2019-03-04T07:57:04.998Z,3.5
2019-03-04T07:57:13.137Z,3.4
2019-03-04T07:57:21.301Z,3.5
2019-03-04T07:57:29.315Z,3.6
2019-03-04T07:57:38.323Z,3.7
2019-03-04T07:57:46.414Z,3.6
2019-03-04T07:57:55.344Z,3.6
2019-03-04T07:58:03.517Z,3.5
2019-03-04T07:58:11.633Z,3.5
2019-03-04T07:58:19.629Z,3.5
2019-03-04T07:58:28.805Z,3.5
2019-03-04T07:58:36.742Z,3.6
2019-03-04T07:58:44.749Z,3.3
2019-03-04T07:58:53.712Z,3.2
2019-03-04T07:59:01.860Z,3.2
2019-03-04T07:59:09.955Z,3.3
2019-03-04T07:59:18.059Z,3.4
2019-03-04T07:59:26.270Z,3.5
2019-03-04T07:59:34.406Z,3.3
2019-03-04T07:59:42.599Z,3.1
2019-03-04T07:59:50.790Z,3.2
2019-03-04T07:59:58.938Z,3.3
2019-03-04T08:00:07.026Z,3.5
2019-03-04T08:00:14.892Z,3.5
2019-03-04T08:00:23.065Z,3.5
2019-03-04T08:00:31.231Z,3.5
2019-03-04T08:00:40.486Z,3.2
2019-03-04T08:00:48.850Z,3.1
2019-03-04T08:00:58.122Z,3.3
2019-03-04T08:01:06.284Z,3.3
2019-03-04T08:01:14.499Z,3.4
2019-03-04T08:01:22.650Z,3.4
2019-03-04T08:01:30.846Z,3.3
2019-03-04T08:01:38.969Z,3.5
2019-03-04T08:01:46.906Z,3.6
2019-03-04T08:01:55.797Z,3.4
2019-03-04T08:02:03.703Z,3.7
2019-03-04T08:02:11.608Z,3.8
2019-03-04T08:02:19.591Z,3.8
2019-03-04T08:02:27.504Z,3.9
2019-03-04T08:02:35.398Z,3.8
2019-03-04T08:02:43.251Z,3.5
2019-03-04T08:02:51.225Z,3.4
2019-03-04T08:02:59.050Z,3.3
2019-03-04T08:03:07.394Z,3.4
2019-03-04T08:03:15.699Z,3.9
2019-03-04T08:03:23.840Z,3.7
2019-03-04T08:03:31.962Z,3.4
2019-03-04T08:03:40.169Z,3.5
2019-03-04T08:03:48.341Z,3.3
2019-03-04T08:03:56.559Z,3.3
2019-03-04T08:04:04.604Z,3.3
2019-03-04T08:04:12.794Z,3.2
2019-03-04T08:04:21.098Z,3.3
2019-03-04T08:04:29.058Z,3.4
2019-03-04T08:04:37.018Z,3.6
2019-03-04T08:04:46.193Z,3.3
2019-03-04T08:04:54.352Z,3.3
2019-03-04T08:05:02.672Z,3.3
2019-03-04T08:05:10.899Z,3.2
2019-03-04T08:05:19.138Z,3.3
2019-03-04T08:05:27.400Z,3.5
2019-03-04T08:05:35.639Z,3.5
2019-03-04T08:05:43.904Z,3.7
2019-03-04T08:05:52.165Z,3.3
2019-03-04T08:06:01.114Z,3.4
2019-03-04T08:06:10.026Z,3.4
2019-03-04T08:06:18.943Z,3.3
2019-03-04T08:06:26.781Z,3.4
2019-03-04T08:06:34.669Z,3.3
2019-03-04T08:06:42.648Z,3.3
2019-03-04T08:06:50.562Z,3.3
2019-03-04T08:06:58.394Z,3.4
2019-03-04T08:07:06.296Z,3.5
2019-03-04T08:07:14.194Z,3.5
2019-03-04T08:07:22.067Z,3.4
2019-03-04T08:07:29.975Z,3.5
2019-03-04T08:07:37.845Z,3.3
2019-03-04T08:07:45.833Z,3.5
2019-03-04T08:07:53.722Z,3.4
2019-03-04T08:08:01.699Z,3.5
2019-03-04T08:08:09.806Z,3.6
2019-03-04T08:08:18.088Z,3.4
2019-03-04T08:08:26.304Z,3.3
2019-03-04T08:08:34.638Z,3.3
2019-03-04T08:08:42.842Z,3.3
2019-03-04T08:08:51.062Z,3.4
2019-03-04T08:08:59.256Z,3.3
2019-03-04T08:09:07.661Z,3.4
2019-03-04T08:09:15.929Z,3.3
2019-03-04T08:09:24.156Z,3.6
2019-03-04T08:09:32.600Z,3.8
2019-03-04T08:09:42.257Z,3.9
2019-03-04T08:09:50.452Z,3.8
2019-03-04T08:09:58.674Z,3.8
2019-03-04T08:10:06.904Z,3.7
2019-03-04T08:10:15.058Z,3.5
2019-03-04T08:10:23.642Z,3.5
2019-03-04T08:10:31.714Z,3.4
2019-03-04T08:10:39.662Z,3.5
2019-03-04T08:10:47.822Z,3.6
2019-03-04T08:10:55.843Z,3.4
2019-03-04T08:11:04.786Z,3.5
2019-03-04T08:11:12.698Z,3.5
2019-03-04T08:11:21.074Z,3.5
2019-03-04T08:11:29.291Z,3.4
2019-03-04T08:11:37.471Z,3.2
2019-03-04T08:11:45.526Z,3.3
2019-03-04T08:11:53.898Z,3.3
2019-03-04T08:12:02.141Z,3.5
2019-03-04T08:12:10.434Z,3.7
2019-03-04T08:12:18.642Z,3.9
2019-03-04T08:12:27.783Z,3.7
2019-03-04T08:12:36.042Z,3.8
2019-03-04T08:12:45.236Z,3.6
2019-03-04T08:12:53.265Z,3.4
2019-03-04T08:13:01.185Z,3.2
2019-03-04T08:13:09.177Z,3.3
2019-03-04T08:13:17.055Z,3.2
2019-03-04T08:13:25.744Z,3.3
2019-03-04T08:13:33.605Z,3.3
2019-03-04T08:13:41.823Z,3.2
2019-03-04T08:13:49.741Z,3.2
2019-03-04T08:13:57.621Z,3.6
2019-03-04T08:14:05.702Z,3.7
2019-03-04T08:14:15.588Z,3.8
2019-03-04T08:14:23.613Z,3.5
2019-03-04T08:14:31.492Z,3.4
2019-03-04T08:14:39.464Z,3.1
2019-03-04T08:14:48.388Z,3.2
2019-03-04T08:14:56.281Z,3.1
2019-03-04T08:15:04.174Z,3.1
2019-03-04T08:15:12.048Z,3.2
2019-03-04T08:15:19.975Z,3.3
2019-03-04T08:15:27.858Z,3.3
2019-03-04T08:15:35.734Z,3.3
2019-03-04T08:15:43.669Z,3.3
2019-03-04T08:15:51.582Z,3.5
2019-03-04T08:15:59.496Z,3.6
2019-03-04T08:16:07.849Z,3.6
2019-03-04T08:16:16.087Z,3.5
2019-03-04T08:16:24.446Z,3.4
2019-03-04T08:16:32.602Z,3.3
2019-03-04T08:16:41.842Z,3.2
2019-03-04T08:16:50.066Z,3.1
2019-03-04T08:16:59.233Z,3.3
2019-03-04T08:17:08.453Z,3.2
2019-03-04T08:17:16.561Z,3.1
2019-03-04T08:17:24.494Z,3
2019-03-04T08:17:32.398Z,2.9
2019-03-04T08:17:40.274Z,3.2
2019-03-04T08:17:48.152Z,3.4
2019-03-04T08:17:57.046Z,3.6
2019-03-04T08:18:05.926Z,3.6
2019-03-04T08:18:13.819Z,3.6
2019-03-04T08:18:21.702Z,3.5
2019-03-04T08:18:29.602Z,3.4
2019-03-04T08:18:37.474Z,3.3
2019-03-04T08:18:45.340Z,3.1
2019-03-04T08:18:54.224Z,3.2
2019-03-04T08:19:02.128Z,3.2
2019-03-04T08:19:10.006Z,3.3
2019-03-04T08:19:18.856Z,3.4
2019-03-04T08:19:26.769Z,3.3
2019-03-04T08:19:34.683Z,3.4
2019-03-04T08:19:42.612Z,3.2
2019-03-04T08:19:50.533Z,3.2
2019-03-04T08:20:00.418Z,3.3
2019-03-04T08:20:08.298Z,3.2
2019-03-04T08:20:16.186Z,3.3
2019-03-04T08:20:24.092Z,3.6
2019-03-04T08:20:31.956Z,3.9
2019-03-04T08:20:39.866Z,3.8
2019-03-04T08:20:47.724Z,3.7
2019-03-04T08:20:55.614Z,3.7
2019-03-04T08:21:03.466Z,3.5
2019-03-04T08:21:11.374Z,3.6
2019-03-04T08:21:19.252Z,3.5
2019-03-04T08:21:28.181Z,3.3
2019-03-04T08:21:36.072Z,3.2
2019-03-04T08:21:43.939Z,3.1
2019-03-04T08:21:51.816Z,3.1
2019-03-04T08:21:59.705Z,3.1
2019-03-04T08:22:07.863Z,3
2019-03-04T08:22:16.453Z,3.3
2019-03-04T08:22:24.943Z,3.6
2019-03-04T08:22:32.956Z,3.6
2019-03-04T08:22:40.944Z,3.5
2019-03-04T08:22:49.092Z,3.4
2019-03-04T08:22:57.215Z,3.2
2019-03-04T08:23:05.542Z,3.4
2019-03-04T08:23:14.688Z,3.4
2019-03-04T08:23:22.742Z,3.4
2019-03-04T08:23:31.108Z,3.3
2019-03-04T08:23:39.290Z,3.4
2019-03-04T08:23:47.353Z,3.4
2019-03-04T08:23:55.708Z,3.3
2019-03-04T08:24:04.829Z,3.6
2019-03-04T08:24:12.709Z,3.5
2019-03-04T08:24:20.602Z,3.8
2019-03-04T08:24:28.571Z,3.9
2019-03-04T08:24:36.448Z,3.8
2019-03-04T08:24:44.335Z,3.6
2019-03-04T08:24:52.232Z,3.4
2019-03-04T08:25:00.316Z,3.1
2019-03-04T08:25:08.029Z,3
2019-03-04T08:25:16.423Z,3.3
2019-03-04T08:25:24.290Z,3.3
2019-03-04T08:25:32.161Z,3.5
2019-03-04T08:25:40.072Z,3.5
2019-03-04T08:25:47.950Z,3.4
2019-03-04T08:25:55.864Z,3.4
2019-03-04T08:26:03.739Z,3.5
2019-03-04T08:26:12.721Z,3.7
2019-03-04T08:26:20.635Z,3.7
2019-03-04T08:26:28.511Z,3.6
2019-03-04T08:26:37.404Z,3.3
2019-03-04T08:26:45.506Z,3.5
2019-03-04T08:26:53.702Z,3.4
2019-03-04T08:27:01.943Z,3.5
2019-03-04T08:27:10.119Z,3.6
2019-03-04T08:27:18.343Z,3.7
2019-03-04T08:27:26.676Z,3.7
2019-03-04T08:27:34.898Z,3.8
2019-03-04T08:27:42.757Z,3.7
2019-03-04T08:27:50.646Z,3.5
2019-03-04T08:27:59.518Z,3.2
2019-03-04T08:28:07.456Z,3.3
2019-03-04T08:28:15.319Z,3.3
2019-03-04T08:28:23.187Z,3.3
2019-03-04T08:28:31.057Z,3.5
2019-03-04T08:28:38.971Z,3.3
2019-03-04T08:28:46.852Z,3.3
2019-03-04T08:28:54.742Z,3.3
2019-03-04T08:29:03.637Z,3.2
2019-03-04T08:29:11.528Z,3.3
2019-03-04T08:29:19.411Z,3.3
2019-03-04T08:29:27.352Z,3.3
2019-03-04T08:29:35.366Z,3.6
2019-03-04T08:29:43.234Z,3.7
2019-03-04T08:29:51.151Z,3.9
2019-03-04T08:29:59.084Z,3.8
2019-03-04T08:30:07.218Z,3.7
2019-03-04T08:30:15.109Z,3.5
2019-03-04T08:30:23.017Z,3.5
2019-03-04T08:30:30.970Z,3.5
2019-03-04T08:30:38.927Z,3.5
2019-03-04T08:30:47.880Z,3.4
2019-03-04T08:30:55.818Z,3.1
2019-03-04T08:31:03.724Z,3
2019-03-04T08:31:11.642Z,3
2019-03-04T08:31:19.522Z,3
2019-03-04T08:31:27.553Z,3.4
2019-03-04T08:31:35.503Z,3.4
2019-03-04T08:31:43.486Z,3.7
2019-03-04T08:31:51.374Z,3.8
2019-03-04T08:31:59.298Z,3.6
2019-03-04T08:32:07.261Z,3.5
2019-03-04T08:32:16.160Z,3.3
2019-03-04T08:32:24.228Z,3.2
2019-03-04T08:32:32.133Z,3.3
2019-03-04T08:32:41.014Z,3.4
2019-03-04T08:32:48.893Z,3.4
2019-03-04T08:32:57.341Z,3.2
2019-03-04T08:33:06.848Z,3.2
2019-03-04T08:33:14.721Z,3.3
2019-03-04T08:33:22.607Z,3.5
2019-03-04T08:33:30.526Z,3.4
2019-03-04T08:33:38.387Z,3.5
2019-03-04T08:33:47.305Z,3.3
2019-03-04T08:33:55.251Z,3.3
2019-03-04T08:34:06.550Z,3.4
2019-03-04T08:34:15.916Z,3.5
2019-03-04T08:34:30.921Z,3.5
2019-03-04T08:34:37.054Z,3.5
2019-03-04T08:34:46.382Z,3.5
2019-03-04T08:34:54.254Z,3.4
2019-03-04T08:35:03.569Z,3.2
2019-03-04T08:35:11.637Z,3.4
2019-03-04T08:35:19.535Z,3.4
2019-03-04T08:35:27.649Z,3.6
2019-03-04T08:35:35.981Z,3.5
2019-03-04T08:35:44.205Z,3.4
2019-03-04T08:35:52.179Z,3.4
2019-03-04T08:36:00.183Z,3.4
2019-03-04T08:36:08.091Z,3.4
2019-03-04T08:36:16.449Z,3.5
2019-03-04T08:36:24.691Z,3.4
2019-03-04T08:36:32.574Z,3.4
2019-03-04T08:36:40.833Z,3
2019-03-04T08:36:48.710Z,3.1
2019-03-04T08:36:57.144Z,3.2
2019-03-04T08:37:05.272Z,3.3
2019-03-04T08:37:13.387Z,3.5
2019-03-04T08:37:21.298Z,3.4
2019-03-04T08:37:29.241Z,3.4
2019-03-04T08:37:39.748Z,3.2
2019-03-04T08:37:47.622Z,3.1
2019-03-04T08:37:56.996Z,3
2019-03-04T08:38:04.946Z,3.2
2019-03-04T08:38:13.099Z,3.1
2019-03-04T08:38:21.115Z,3.1
2019-03-04T08:38:29.046Z,3.1
2019-03-04T08:38:37.432Z,3
2019-03-04T08:38:45.297Z,2.9
2019-03-04T08:38:54.206Z,3.2
2019-03-04T08:39:02.364Z,3.2
2019-03-04T08:39:10.254Z,3.3
2019-03-04T08:39:18.233Z,3.5
2019-03-04T08:39:27.123Z,3.5
2019-03-04T08:39:35.031Z,3.5
2019-03-04T08:39:43.017Z,3.3
2019-03-04T08:39:50.943Z,3.3
2019-03-04T08:39:58.832Z,3.3
2019-03-04T08:40:07.105Z,3.5
2019-03-04T08:40:15.479Z,3.5
2019-03-04T08:40:23.460Z,3.3
2019-03-04T08:40:31.369Z,3.3
2019-03-04T08:40:39.371Z,3.3
2019-03-04T08:40:47.319Z,3.3
2019-03-04T08:40:56.505Z,3.4
2019-03-04T08:41:04.933Z,3.5
2019-03-04T08:41:14.225Z,3.6
2019-03-04T08:41:22.649Z,3.6
2019-03-04T08:41:30.597Z,3.5
2019-03-04T08:41:39.343Z,3.6
2019-03-04T08:41:47.445Z,3.5
2019-03-04T08:41:55.881Z,3.5
2019-03-04T08:42:04.329Z,3.4
2019-03-04T08:42:12.881Z,3.2
2019-03-04T08:42:21.167Z,3.2
2019-03-04T08:42:29.370Z,3.2
2019-03-04T08:42:37.503Z,3.4
2019-03-04T08:42:45.415Z,3.3
2019-03-04T08:42:53.501Z,3.5
2019-03-04T08:43:01.379Z,3.4
2019-03-04T08:43:09.691Z,3.5
2019-03-04T08:43:18.207Z,3.4
2019-03-04T08:43:26.498Z,3.3
2019-03-04T08:43:34.707Z,3.3
2019-03-04T08:43:42.615Z,3.1
2019-03-04T08:43:50.579Z,3.1
2019-03-04T08:43:58.747Z,3.2
2019-03-04T08:44:07.992Z,3.3
2019-03-04T08:44:16.041Z,3.5
2019-03-04T08:44:23.996Z,3.5
2019-03-04T08:44:32.858Z,3.6
2019-03-04T08:44:40.849Z,3.4
2019-03-04T08:44:48.718Z,3.3
2019-03-04T08:44:56.612Z,3.3
2019-03-04T08:45:04.941Z,3
2019-03-04T08:45:12.857Z,3.2
2019-03-04T08:45:21.119Z,3.2
2019-03-04T08:45:30.009Z,2.9
2019-03-04T08:45:38.517Z,3
2019-03-04T08:45:46.795Z,3
2019-03-04T08:45:54.757Z,3.1
2019-03-04T08:46:02.667Z,3.2
2019-03-04T08:46:11.324Z,3.2
2019-03-04T08:46:19.602Z,3.4
2019-03-04T08:46:28.028Z,3.5
2019-03-04T08:46:36.458Z,3.7
2019-03-04T08:46:44.326Z,3.8
2019-03-04T08:46:52.189Z,3.5
2019-03-04T08:47:00.439Z,3.2
2019-03-04T08:47:08.814Z,2.9
2019-03-04T08:47:17.709Z,2.9
2019-03-04T08:47:26.032Z,3
2019-03-04T08:47:33.956Z,3
2019-03-04T08:47:42.438Z,3.1
2019-03-04T08:47:50.573Z,3.3
2019-03-04T08:48:00.554Z,3.4
2019-03-04T08:48:08.101Z,3.5
2019-03-04T08:48:17.210Z,3.6
2019-03-04T08:48:25.209Z,3.5
2019-03-04T08:48:33.130Z,3.4
2019-03-04T08:48:41.397Z,3.5
2019-03-04T08:48:49.371Z,3.3
2019-03-04T08:48:57.481Z,3.3
2019-03-04T08:49:06.401Z,3.1
2019-03-04T08:49:14.839Z,2.9
2019-03-04T08:49:23.113Z,2.9
2019-03-04T08:49:32.145Z,3
2019-03-04T08:49:40.979Z,3.2
2019-03-04T08:49:49.125Z,3.4
2019-03-04T08:49:57.869Z,3.2
2019-03-04T08:50:05.743Z,3
2019-03-04T08:50:14.159Z,3.1
2019-03-04T08:50:22.433Z,3.2
2019-03-04T08:50:30.515Z,3.5
2019-03-04T08:50:38.697Z,3.7
2019-03-04T08:50:46.657Z,3.7
2019-03-04T08:50:55.020Z,3.8
2019-03-04T08:51:04.460Z,3.5
2019-03-04T08:51:12.879Z,3.5
2019-03-04T08:51:20.778Z,3.5
2019-03-04T08:51:28.695Z,3.3
2019-03-04T08:51:36.594Z,3.6
2019-03-04T08:51:44.542Z,3.5
2019-03-04T08:51:52.605Z,3.5
2019-03-04T08:52:00.579Z,3.5
2019-03-04T08:52:08.627Z,3.4
2019-03-04T08:52:16.619Z,3.6
2019-03-04T08:52:24.503Z,3.7
2019-03-04T08:52:32.457Z,3.6
2019-03-04T08:52:42.431Z,3.9
2019-03-04T08:52:50.370Z,3.3
2019-03-04T08:52:58.374Z,3.5
2019-03-04T08:53:06.335Z,3.7
2019-03-04T08:53:15.302Z,3.8
2019-03-04T08:53:23.323Z,3.8
2019-03-04T08:53:33.695Z,3.5
2019-03-04T08:53:42.381Z,3.3
2019-03-04T08:53:51.134Z,3.4
2019-03-04T08:53:59.317Z,3.5
2019-03-04T08:54:07.871Z,3.4
2019-03-04T08:54:15.937Z,3.4
2019-03-04T08:54:23.949Z,3.3
2019-03-04T08:54:31.935Z,3.3
2019-03-04T08:54:39.817Z,3.2
2019-03-04T08:54:47.756Z,3.2
2019-03-04T08:54:55.691Z,3.1
2019-03-04T08:55:03.672Z,3.2
2019-03-04T08:55:11.695Z,3.3
2019-03-04T08:55:20.640Z,3.6
2019-03-04T08:55:28.999Z,3.5
2019-03-04T08:55:37.934Z,3.6
2019-03-04T08:55:46.831Z,3.4
2019-03-04T08:55:54.783Z,3.5
2019-03-04T08:56:03.161Z,3.3
2019-03-04T08:56:12.435Z,3.3
2019-03-04T08:56:20.081Z,3.4
2019-03-04T08:56:28.025Z,3.6
2019-03-04T08:56:36.935Z,3.4
2019-03-04T08:56:44.800Z,3.3
2019-03-04T08:56:52.718Z,3.5
2019-03-04T08:57:05.592Z,3.5
2019-03-04T08:57:13.474Z,3.4
2019-03-04T08:57:21.394Z,3.3
2019-03-04T08:57:29.377Z,3.4
2019-03-04T08:57:37.421Z,3.7
2019-03-04T08:57:45.325Z,3.6
2019-03-04T08:57:53.252Z,3.6
2019-03-04T08:58:01.245Z,3.4
2019-03-04T08:58:09.215Z,3.5
2019-03-04T08:58:17.106Z,3.4
2019-03-04T08:58:25.000Z,3.5
2019-03-04T08:58:34.340Z,3.4
2019-03-04T08:58:41.952Z,3.4
2019-03-04T08:58:49.865Z,3.6
2019-03-04T08:58:57.825Z,3.6
2019-03-04T08:59:06.224Z,3.7
2019-03-04T08:59:14.210Z,3.6
2019-03-04T08:59:22.257Z,3.9
2019-03-04T08:59:30.206Z,3.9
2019-03-04T08:59:38.061Z,3.7
2019-03-04T08:59:46.006Z,3.7
2019-03-04T08:59:54.909Z,3.6
2019-03-04T09:00:03.885Z,3.5
2019-03-04T09:00:12.794Z,3.5
2019-03-04T09:00:21.804Z,3.4
2019-03-04T09:00:29.853Z,3.3
2019-03-04T09:00:37.771Z,3.2
2019-03-04T09:00:45.678Z,2.9
2019-03-04T09:00:53.673Z,3.1
2019-03-04T09:01:01.839Z,3
2019-03-04T09:01:09.955Z,3.2
2019-03-04T09:01:18.029Z,3.4
2019-03-04T09:01:26.141Z,3.4
2019-03-04T09:01:35.348Z,3.5
2019-03-04T09:01:43.828Z,3.3
2019-03-04T09:01:51.919Z,3.2
2019-03-04T09:02:00.059Z,3.2
2019-03-04T09:02:08.378Z,3.4
2019-03-04T09:02:16.525Z,3.3
2019-03-04T09:02:24.771Z,3.4
2019-03-04T09:02:33.040Z,3.3
2019-03-04T09:02:40.981Z,3.4
2019-03-04T09:02:49.076Z,3.5
2019-03-04T09:02:57.192Z,3.7
2019-03-04T09:03:06.323Z,3.8
2019-03-04T09:03:14.236Z,3.5
2019-03-04T09:03:22.118Z,3.3
2019-03-04T09:03:30.051Z,3.3
2019-03-04T09:03:37.961Z,3.1
2019-03-04T09:03:46.837Z,2.9
2019-03-04T09:03:54.706Z,3.1
2019-03-04T09:04:02.617Z,3
2019-03-04T09:04:10.518Z,3.1
2019-03-04T09:04:19.387Z,3.4
2019-03-04T09:04:27.339Z,3.6
2019-03-04T09:04:35.199Z,3.9
2019-03-04T09:04:43.122Z,4.1
2019-03-04T09:04:51.027Z,4.2
2019-03-04T09:04:58.920Z,4.2
2019-03-04T09:05:06.788Z,3.9
2019-03-04T09:05:14.714Z,4
2019-03-04T09:05:22.609Z,4
2019-03-04T09:05:30.507Z,4.2
2019-03-04T09:05:38.442Z,4.1
2019-03-04T09:05:46.343Z,3.9
2019-03-04T09:05:54.193Z,3.9
2019-03-04T09:06:02.126Z,3.8
2019-03-04T09:06:10.034Z,3.8
2019-03-04T09:06:17.945Z,3.8
2019-03-04T09:06:25.840Z,3.7
2019-03-04T09:06:34.758Z,3.9
2019-03-04T09:06:42.654Z,4.3
2019-03-04T09:06:50.564Z,4.2
2019-03-04T09:06:59.477Z,4.1
2019-03-04T09:07:08.348Z,4
2019-03-04T09:07:16.257Z,3.6
2019-03-04T09:07:24.192Z,3.7
2019-03-04T09:07:33.114Z,3.7
2019-03-04T09:07:41.016Z,3.6
2019-03-04T09:07:49.963Z,3.5
2019-03-04T09:07:58.848Z,3.5
2019-03-04T09:08:07.773Z,3.4
2019-03-04T09:08:15.654Z,3.4
2019-03-04T09:08:23.546Z,3.5
2019-03-04T09:08:31.490Z,3.2
2019-03-04T09:08:39.374Z,3.1
2019-03-04T09:08:47.285Z,3.3
2019-03-04T09:08:55.281Z,3.2
2019-03-04T09:09:03.252Z,3.5
2019-03-04T09:09:11.169Z,3.4
2019-03-04T09:09:20.093Z,3.5
2019-03-04T09:09:28.005Z,3.4
2019-03-04T09:09:35.916Z,3.5
2019-03-04T09:09:43.855Z,3.3
2019-03-04T09:09:51.786Z,3.2
2019-03-04T09:09:59.702Z,3
2019-03-04T09:10:08.589Z,3
2019-03-04T09:10:16.487Z,3.1
2019-03-04T09:10:24.391Z,3
2019-03-04T09:10:32.265Z,3.3
2019-03-04T09:10:40.226Z,3.1
2019-03-04T09:10:48.110Z,3.3
2019-03-04T09:10:56.074Z,3.3
2019-03-04T09:11:04.050Z,3.3
2019-03-04T09:11:12.915Z,3.4
2019-03-04T09:11:20.825Z,3.1
2019-03-04T09:11:28.739Z,3.2
2019-03-04T09:11:36.648Z,3.1
2019-03-04T09:11:44.568Z,3.1
2019-03-04T09:11:52.525Z,3.1
2019-03-04T09:12:00.419Z,3.5
2019-03-04T09:12:08.383Z,3.6
2019-03-04T09:12:16.292Z,3.6
2019-03-04T09:12:24.195Z,3.6
2019-03-04T09:12:32.141Z,3.3
2019-03-04T09:12:41.029Z,3.3
2019-03-04T09:12:48.936Z,3.1
2019-03-04T09:12:56.856Z,3.1
2019-03-04T09:13:04.760Z,3.1
2019-03-04T09:13:12.637Z,3
2019-03-04T09:13:20.576Z,3
2019-03-04T09:13:28.475Z,3.1
2019-03-04T09:13:36.396Z,2.9
2019-03-04T09:13:44.294Z,2.9
2019-03-04T09:13:52.190Z,2.9
2019-03-04T09:14:00.097Z,3.1
2019-03-04T09:14:08.014Z,3.2
2019-03-04T09:14:15.902Z,3.5
2019-03-04T09:14:23.765Z,3.5
2019-03-04T09:14:31.639Z,3.4
2019-03-04T09:14:40.487Z,3.4
2019-03-04T09:14:48.396Z,3.4
2019-03-04T09:14:56.278Z,3.4
2019-03-04T09:15:04.175Z,3.5
2019-03-04T09:15:12.054Z,3.6
2019-03-04T09:15:19.940Z,3.5
2019-03-04T09:15:28.787Z,3.5
2019-03-04T09:15:36.655Z,3.4
2019-03-04T09:15:44.538Z,3.7
2019-03-04T09:15:52.408Z,3.6
2019-03-04T09:16:00.318Z,3.6
2019-03-04T09:16:08.230Z,3.7
2019-03-04T09:16:16.089Z,3.3
2019-03-04T09:16:23.971Z,3.2
2019-03-04T09:16:31.832Z,3.2
2019-03-04T09:16:39.700Z,3.1
2019-03-04T09:16:47.599Z,3.2
2019-03-04T09:16:55.523Z,3.2
2019-03-04T09:17:03.409Z,3.3
2019-03-04T09:17:12.287Z,3.2
2019-03-04T09:17:20.174Z,3.2
2019-03-04T09:17:28.049Z,3.2
2019-03-04T09:17:35.914Z,3
2019-03-04T09:17:43.923Z,2.9
2019-03-04T09:17:51.812Z,3
2019-03-04T09:17:59.687Z,2.9
2019-03-04T09:18:07.640Z,2.8
2019-03-04T09:18:16.459Z,2.9
2019-03-04T09:18:24.358Z,2.9
2019-03-04T09:18:33.219Z,3.1
2019-03-04T09:18:41.113Z,3.1
2019-03-04T09:18:49.012Z,3
2019-03-04T09:18:56.902Z,2.8
2019-03-04T09:19:04.789Z,2.9
2019-03-04T09:19:12.659Z,2.9
2019-03-04T09:19:21.644Z,3.2
2019-03-04T09:19:29.499Z,3.4
2019-03-04T09:19:37.376Z,3.5
2019-03-04T09:19:45.263Z,3.5
2019-03-04T09:19:53.116Z,3.5
2019-03-04T09:20:00.998Z,3.3
2019-03-04T09:20:08.879Z,3.2
2019-03-04T09:20:16.734Z,3.1
2019-03-04T09:20:24.617Z,3
2019-03-04T09:20:33.498Z,3
2019-03-04T09:20:41.429Z,3
2019-03-04T09:20:49.295Z,3.2
2019-03-04T09:20:57.154Z,3.4
2019-03-04T09:21:05.026Z,3.3
2019-03-04T09:21:13.940Z,3.5
2019-03-04T09:21:21.819Z,3.4
2019-03-04T09:21:30.674Z,3.2
2019-03-04T09:21:40.523Z,3
2019-03-04T09:21:49.385Z,2.9
2019-03-04T09:21:57.308Z,2.9
2019-03-04T09:22:05.211Z,2.9
2019-03-04T09:22:13.146Z,2.8
2019-03-04T09:22:21.007Z,2.9
2019-03-04T09:22:28.898Z,2.9
2019-03-04T09:22:36.766Z,3
2019-03-04T09:22:44.689Z,3.1
2019-03-04T09:22:52.557Z,3.1
2019-03-04T09:23:01.449Z,2.9
2019-03-04T09:23:09.338Z,3
2019-03-04T09:23:17.203Z,3
2019-03-04T09:23:25.124Z,3.1
2019-03-04T09:23:33.020Z,3.1
2019-03-04T09:23:40.912Z,3.1
2019-03-04T09:23:50.078Z,3.3
2019-03-04T09:23:58.643Z,3.2
2019-03-04T09:24:06.546Z,3.1
2019-03-04T09:24:14.559Z,3.3
2019-03-04T09:24:22.478Z,3
2019-03-04T09:24:30.351Z,3
2019-03-04T09:24:38.222Z,3
2019-03-04T09:24:46.140Z,2.9
2019-03-04T09:24:54.035Z,3.2
2019-03-04T09:25:02.906Z,3.1
2019-03-04T09:25:10.819Z,3
2019-03-04T09:25:18.701Z,3
2019-03-04T09:25:31.534Z,3.2
2019-03-04T09:25:39.442Z,3.4
2019-03-04T09:25:47.324Z,3.5
2019-03-04T09:25:55.201Z,3.5
2019-03-04T09:26:03.215Z,3.2
2019-03-04T09:26:11.139Z,3.1
2019-03-04T09:26:19.010Z,3
2019-03-04T09:26:26.912Z,3
2019-03-04T09:26:34.791Z,3.1
2019-03-04T09:26:43.702Z,3.1
2019-03-04T09:26:51.576Z,3.2
2019-03-04T09:26:59.485Z,3.1
2019-03-04T09:27:07.360Z,3
2019-03-04T09:27:15.270Z,2.8
2019-03-04T09:27:23.135Z,2.8
2019-03-04T09:27:31.093Z,2.7
2019-03-04T09:27:38.970Z,2.9
2019-03-04T09:27:47.012Z,2.9
2019-03-04T09:27:54.862Z,3
2019-03-04T09:28:02.737Z,3
2019-03-04T09:28:10.625Z,3.1
2019-03-04T09:28:18.492Z,3.3
2019-03-04T09:28:27.463Z,3.3
2019-03-04T09:28:36.397Z,3.2
2019-03-04T09:28:45.272Z,3.1
2019-03-04T09:28:53.144Z,3.2
2019-03-04T09:29:01.112Z,3.1
2019-03-04T09:29:09.004Z,3.1
2019-03-04T09:29:16.885Z,3.1
2019-03-04T09:29:24.791Z,3.1
2019-03-04T09:29:32.653Z,3.3
2019-03-04T09:29:40.522Z,3.4
2019-03-04T09:29:49.408Z,3.2
2019-03-04T09:29:57.326Z,3.1
2019-03-04T09:30:05.195Z,3.1
2019-03-04T09:30:13.125Z,3.2
2019-03-04T09:30:21.003Z,3.2
2019-03-04T09:30:28.939Z,3.4
2019-03-04T09:30:36.777Z,3.3
2019-03-04T09:30:45.693Z,3.2
2019-03-04T09:30:53.588Z,3.5
2019-03-04T09:31:01.468Z,3.3
2019-03-04T09:31:10.289Z,3.4
2019-03-04T09:31:18.296Z,3.3
2019-03-04T09:31:26.192Z,3.3
2019-03-04T09:31:34.069Z,3.4
2019-03-04T09:31:42.012Z,3.4
2019-03-04T09:31:49.910Z,3.6
2019-03-04T09:31:57.863Z,3.5
2019-03-04T09:32:05.750Z,3.3
2019-03-04T09:32:13.796Z,3.2
2019-03-04T09:32:21.665Z,3.2
2019-03-04T09:32:29.594Z,3.2
2019-03-04T09:32:37.515Z,3.3
2019-03-04T09:32:45.429Z,3.3
2019-03-04T09:32:54.314Z,3.3
2019-03-04T09:33:02.214Z,3.4
2019-03-04T09:33:11.140Z,3.3
2019-03-04T09:33:19.006Z,3.1
2019-03-04T09:33:26.920Z,3
2019-03-04T09:33:34.790Z,2.9
2019-03-04T09:33:42.660Z,2.9
2019-03-04T09:33:50.576Z,3.2
2019-03-04T09:33:58.515Z,3.2
2019-03-04T09:34:06.423Z,3.3
2019-03-04T09:34:14.293Z,3.4
2019-03-04T09:34:22.166Z,3.3
2019-03-04T09:34:30.056Z,3.4
2019-03-04T09:34:38.001Z,3.4
2019-03-04T09:34:45.876Z,3.2
2019-03-04T09:34:53.766Z,3.3
2019-03-04T09:35:01.677Z,3
2019-03-04T09:35:09.644Z,3
2019-03-04T09:35:18.506Z,3.1
2019-03-04T09:35:26.372Z,3
2019-03-04T09:35:35.316Z,3.2
2019-03-04T09:35:43.236Z,3.1
2019-03-04T09:35:52.140Z,3.1
2019-03-04T09:36:00.084Z,3
2019-03-04T09:36:07.980Z,3
2019-03-04T09:36:15.855Z,3.1
2019-03-04T09:36:23.761Z,3.1
2019-03-04T09:36:31.628Z,3.4
2019-03-04T09:36:39.510Z,3.4
2019-03-04T09:36:47.380Z,3.4
2019-03-04T09:36:55.282Z,3.3
2019-03-04T09:37:03.237Z,3.2
2019-03-04T09:37:12.131Z,3
2019-03-04T09:37:19.966Z,3.1
2019-03-04T09:37:27.826Z,3.2
2019-03-04T09:37:35.809Z,3
2019-03-04T09:37:43.645Z,3
2019-03-04T09:37:51.585Z,3
2019-03-04T09:37:59.486Z,2.8
2019-03-04T09:38:07.445Z,2.9
2019-03-04T09:38:16.365Z,3.2
2019-03-04T09:38:24.251Z,3
2019-03-04T09:38:32.115Z,3
2019-03-04T09:38:40.021Z,2.8
2019-03-04T09:38:48.886Z,2.8
2019-03-04T09:38:56.782Z,3
2019-03-04T09:39:04.797Z,3.1
2019-03-04T09:39:12.712Z,3.1
2019-03-04T09:39:20.580Z,3
2019-03-04T09:39:29.450Z,2.9
2019-03-04T09:39:37.370Z,3.1
2019-03-04T09:39:45.217Z,3.2
2019-03-04T09:39:53.144Z,3.2
2019-03-04T09:40:01.009Z,3.2
2019-03-04T09:40:08.862Z,3.1
2019-03-04T09:40:16.741Z,3
2019-03-04T09:40:24.648Z,3
2019-03-04T09:40:32.560Z,2.8
2019-03-04T09:40:40.433Z,2.7
2019-03-04T09:40:48.330Z,2.9
2019-03-04T09:40:57.219Z,2.8
2019-03-04T09:41:05.129Z,3
2019-03-04T09:41:12.993Z,3
2019-03-04T09:41:20.894Z,3
2019-03-04T09:41:28.856Z,3
2019-03-04T09:41:36.732Z,2.9
2019-03-04T09:41:44.601Z,2.6
2019-03-04T09:41:53.502Z,2.7
2019-03-04T09:42:01.408Z,3
2019-03-04T09:42:09.280Z,2.9
2019-03-04T09:42:17.175Z,2.8
2019-03-04T09:42:25.076Z,2.7
2019-03-04T09:42:32.940Z,3
2019-03-04T09:42:40.839Z,3.2
2019-03-04T09:42:48.736Z,3.4
2019-03-04T09:42:56.603Z,3.3
2019-03-04T09:43:04.539Z,3
2019-03-04T09:43:12.404Z,2.9
2019-03-04T09:43:20.345Z,2.9
2019-03-04T09:43:28.267Z,3
2019-03-04T09:43:36.228Z,2.9
2019-03-04T09:43:44.473Z,2.8
2019-03-04T09:43:52.490Z,2.9
2019-03-04T09:44:01.352Z,2.8